Casper-Natrona County International Airport
KCPR : now visible

Airfield :











YOU CAN JOIN US ON...

 
LOGIN :

Register | Disclaimer

   EN    FR    IT 

 









Legend :    VFR   Marginal VFR   IFR   Intensive IFR   Very Intensive IFR
Visi :
Ceiling :
>= 8 km
>= 3000ft
5 to 8 km
1000 to 3000 ft
1500m to 5 km
500 to 1000 ft
800 to 1500m
200 to 500 ft
< 800m
< 200 ft
Symbols :   Thunderstorms  Fog  Heavy snow  Heavy precipitations  Wind > 20 kt






- Airport Elevation : 5350 ft
- IATA code : CPR


KCPR - Casper-Natrona County International

CURRENT METAR :
  • 122253Z 21016KT 10SM CLR 08/M06 A2995 RMK AO2 PK WND 21032/2208 SLP145 T00781061

EXPIRED METARs :
  • 122153Z 21017G29KT 10SM CLR 09/M07 A2997 RMK AO2 PK WND 21038/2100 SLP152 T00941067
  • 122053Z 22026G32KT 10SM CLR 09/M07 A2999 RMK AO2 PK WND 20035/2018 SLP159 T00891072 56030

TAF KCPR
Valid from the 13 at 00:00 until the 14 at 00:00 UTC


122325Z 1300/1324 22016G26KT P6SM BKN250
FM130600 23014G22KT P6SM OVC200
FM130900 25012KT P6SM BKN100
FM131400 32008KT P6SM BKN040



MET'MAP, your aeronautical weather chart ! - Copyright ORBIFLY December 2007 - Disclaimer

ORBIFLY MET'MAP TEAM :

Programming & Development : Alexandra Zaïnal
Concept & Development : Baudouin d'Aumeries
Co-Development & Prog : Marc-Olivier Méhu
Technical & hardware support : Manuel Goepfert

Contact : metmap@orbifly.com




SOURCES & CREDITS :

   NOAA       Earth
Advisory